createdAt,value
2022-09-05T00:00:11.944Z,94.90
2022-09-05T00:03:23.267Z,94.90
2022-09-05T00:06:05.615Z,95.20
2022-09-05T00:08:51.074Z,95.20
2022-09-05T00:11:40.837Z,95.20
2022-09-05T00:15:15.214Z,95.20
2022-09-05T00:17:43.761Z,95.20
2022-09-05T00:24:19.987Z,94.90
2022-09-05T00:24:28.310Z,94.90
2022-09-05T00:26:17.222Z,94.80
2022-09-05T00:28:47.930Z,94.90
2022-09-05T00:31:55.941Z,94.80
2022-09-05T00:34:56.309Z,94.70
2022-09-05T00:37:33.186Z,94.60
2022-09-05T00:40:17.422Z,94.50
2022-09-05T00:42:53.228Z,94.40
2022-09-05T00:45:27.578Z,94.30
2022-09-05T00:48:00.154Z,94.20
2022-09-05T00:50:39.007Z,94.10
2022-09-05T00:53:13.161Z,94.00
2022-09-05T00:56:13.652Z,93.90
2022-09-05T00:58:58.364Z,93.90
2022-09-05T01:01:40.277Z,93.90
2022-09-05T01:04:23.205Z,93.90
2022-09-05T01:07:21.541Z,93.80
2022-09-05T01:09:56.876Z,93.90
2022-09-05T01:12:53.087Z,93.80
2022-09-05T01:15:46.261Z,93.90
2022-09-05T01:18:21.857Z,94.10
2022-09-05T01:21:09.799Z,94.20
2022-09-05T01:23:39.572Z,94.10
2022-09-05T01:26:06.327Z,94.10
2022-09-05T01:29:15.862Z,94.20
2022-09-05T01:31:57.077Z,94.40
2022-09-05T01:34:34.672Z,94.60
2022-09-05T01:37:32.898Z,94.80
2022-09-05T01:40:19.748Z,94.80
2022-09-05T01:42:57.228Z,95.00
2022-09-05T01:45:49.775Z,95.10
2022-09-05T01:48:30.308Z,95.10
2022-09-05T01:51:03.456Z,95.40
2022-09-05T01:53:46.376Z,95.40
2022-09-05T01:56:35.234Z,95.50
2022-09-05T01:59:14.359Z,95.60
2022-09-05T02:01:47.262Z,95.70
2022-09-05T02:04:52.621Z,95.70
2022-09-05T02:07:37.629Z,95.70
2022-09-05T02:10:10.469Z,95.70
2022-09-05T02:12:42.698Z,95.70
2022-09-05T02:15:22.359Z,95.70
2022-09-05T02:17:56.672Z,95.70
2022-09-05T02:20:35.074Z,95.70
2022-09-05T02:23:35.162Z,95.70
2022-09-05T02:26:24.956Z,95.70
2022-09-05T02:29:29.046Z,95.70
2022-09-05T02:32:03.229Z,95.70
2022-09-05T02:34:39.235Z,95.70
2022-09-05T02:37:32.384Z,95.70
2022-09-05T02:45:06.486Z,95.70
2022-09-05T02:45:14.494Z,95.70
2022-09-05T02:46:18.407Z,95.70
2022-09-05T02:49:20.355Z,95.70
2022-09-05T02:57:25.188Z,95.70
2022-09-05T02:57:41.361Z,95.70
2022-09-05T02:58:06.188Z,95.70
2022-09-05T03:00:52.289Z,95.70
2022-09-05T03:03:39.293Z,95.70
2022-09-05T03:06:34.902Z,95.70
2022-09-05T03:09:17.219Z,95.70
2022-09-05T03:12:28.873Z,95.70
2022-09-05T03:15:24.652Z,95.70
2022-09-05T03:17:59.525Z,95.70
2022-09-05T03:21:09.303Z,95.70
2022-09-05T03:24:04.237Z,95.70
2022-09-05T03:26:57.755Z,95.70
2022-09-05T03:29:58.606Z,95.70
2022-09-05T03:32:49.043Z,95.70
2022-09-05T03:35:49.901Z,95.70
2022-09-05T03:38:49.082Z,95.70
2022-09-05T03:41:25.275Z,95.70
2022-09-05T03:44:26.060Z,95.70
2022-09-05T03:47:11.617Z,95.70
2022-09-05T03:55:35.358Z,95.70
2022-09-05T03:57:23.098Z,95.70
2022-09-05T03:57:28.079Z,95.70
2022-09-05T03:59:44.669Z,95.70
2022-09-05T04:07:21.551Z,95.70
2022-09-05T04:08:26.895Z,95.70
2022-09-05T04:08:42.257Z,95.70
2022-09-05T04:11:27.835Z,95.70
2022-09-05T04:14:21.393Z,95.70
2022-09-05T04:17:19.655Z,95.70
2022-09-05T04:19:59.715Z,95.70
2022-09-05T04:22:50.259Z,95.70
2022-09-05T04:25:29.296Z,95.70
2022-09-05T04:28:02.047Z,95.70
2022-09-05T04:30:39.732Z,95.70
2022-09-05T04:33:18.134Z,95.70
2022-09-05T04:36:19.855Z,95.70
2022-09-05T04:39:05.092Z,95.70
2022-09-05T04:41:39.012Z,95.70
2022-09-05T04:44:12.982Z,95.70
2022-09-05T04:46:48.923Z,95.70
2022-09-05T04:49:27.504Z,95.70
2022-09-05T04:52:39.566Z,95.70
2022-09-05T04:55:41.811Z,95.70
2022-09-05T05:00:36.803Z,95.70
2022-09-05T05:06:03.644Z,95.70
2022-09-05T05:06:14.661Z,95.70
2022-09-05T05:07:17.519Z,95.70
2022-09-05T05:10:39.187Z,95.70
2022-09-05T05:18:00.362Z,95.70
2022-09-05T05:18:15.633Z,95.70
2022-09-05T05:19:28.669Z,95.70
2022-09-05T05:21:57.978Z,95.70
2022-09-05T05:24:36.349Z,95.70
2022-09-05T05:27:10.168Z,95.70
2022-09-05T05:29:52.211Z,95.70
2022-09-05T05:32:45.465Z,95.70
2022-09-05T05:35:23.474Z,95.70
2022-09-05T05:37:59.633Z,95.70
2022-09-05T05:40:31.760Z,95.70
2022-09-05T05:43:15.194Z,95.70
2022-09-05T05:45:42.735Z,95.70
2022-09-05T05:48:28.952Z,95.70
2022-09-05T05:51:13.443Z,95.70
2022-09-05T05:53:52.381Z,95.70
2022-09-05T05:56:22.345Z,95.70
2022-09-05T05:59:23.962Z,95.70
2022-09-05T06:02:02.477Z,95.70
2022-09-05T06:04:46.190Z,95.70
2022-09-05T06:08:33.892Z,95.70
2022-09-05T06:14:59.462Z,95.70
2022-09-05T06:15:00.312Z,95.70
2022-09-05T06:16:56.431Z,95.70
2022-09-05T06:20:20.888Z,95.70
2022-09-05T06:22:43.500Z,95.70
2022-09-05T06:25:29.179Z,95.70
2022-09-05T06:28:19.286Z,95.70
2022-09-05T06:31:30.109Z,95.60
2022-09-05T06:34:35.516Z,95.30
2022-09-05T06:37:24.816Z,94.90
2022-09-05T06:40:17.089Z,94.70
2022-09-05T06:42:52.698Z,94.20
2022-09-05T06:45:32.607Z,94.10
2022-09-05T06:48:36.580Z,93.90
2022-09-05T06:51:44.827Z,93.70
2022-09-05T06:54:33.908Z,93.10
2022-09-05T06:57:10.155Z,92.50
2022-09-05T06:59:58.907Z,91.70
2022-09-05T07:02:59.898Z,91.50
2022-09-05T07:05:45.459Z,91.50
2022-09-05T07:08:35.660Z,90.90
2022-09-05T07:11:16.616Z,90.50
2022-09-05T07:13:49.988Z,90.00
2022-09-05T07:16:26.525Z,89.50
2022-09-05T07:19:29.307Z,89.40
2022-09-05T07:22:48.839Z,89.50
2022-09-05T07:25:18.935Z,89.50
2022-09-05T07:28:29.056Z,88.90
2022-09-05T07:30:46.740Z,88.70
2022-09-05T07:33:21.359Z,88.40
2022-09-05T07:35:50.546Z,88.60
2022-09-05T07:38:52.491Z,88.20
2022-09-05T07:41:45.248Z,87.90
2022-09-05T07:44:22.284Z,87.50
2022-09-05T07:46:56.274Z,87.30
2022-09-05T07:49:27.266Z,87.00
2022-09-05T07:56:46.314Z,86.60
2022-09-05T07:56:51.146Z,87.00
2022-09-05T07:57:50.850Z,87.00
2022-09-05T08:00:27.064Z,85.80
2022-09-05T08:03:07.992Z,85.40
2022-09-05T08:05:50.462Z,85.20
2022-09-05T08:08:22.945Z,85.10
2022-09-05T08:11:24.204Z,85.30
2022-09-05T08:14:43.392Z,85.10
2022-09-05T08:16:58.224Z,85.10
2022-09-05T08:19:40.619Z,85.00
2022-09-05T08:22:13.773Z,85.10
2022-09-05T08:24:47.039Z,85.30
2022-09-05T08:27:17.579Z,84.90
2022-09-05T08:30:25.783Z,84.30
2022-09-05T08:33:11.259Z,84.30
2022-09-05T08:35:53.254Z,83.70
2022-09-05T08:38:25.537Z,83.90
2022-09-05T08:40:55.631Z,83.40
2022-09-05T08:46:44.587Z,83.50
2022-09-05T08:46:55.157Z,82.70
2022-09-05T08:49:41.424Z,81.80
2022-09-05T08:52:26.196Z,82.10
2022-09-05T08:55:07.516Z,82.30
2022-09-05T08:57:47.027Z,81.80
2022-09-05T09:00:20.481Z,81.50
2022-09-05T09:03:25.761Z,81.00
2022-09-05T09:06:13.932Z,80.80
2022-09-05T09:08:55.739Z,80.80
2022-09-05T09:11:34.326Z,81.70
2022-09-05T09:14:37.911Z,81.70
2022-09-05T09:17:42.616Z,80.50
2022-09-05T09:20:15.062Z,80.80
2022-09-05T09:23:00.547Z,80.30
2022-09-05T09:25:33.739Z,80.90
2022-09-05T09:28:50.012Z,80.60
2022-09-05T09:31:49.754Z,80.00
2022-09-05T09:37:50.838Z,80.30
2022-09-05T09:40:22.412Z,80.10
2022-09-05T09:43:08.429Z,79.80
2022-09-05T09:46:10.659Z,79.20
2022-09-05T09:48:57.346Z,78.40
2022-09-05T09:52:00.422Z,78.80
2022-09-05T09:55:17.429Z,79.80
2022-09-05T09:58:23.618Z,78.20
2022-09-05T10:01:34.864Z,78.30
2022-09-05T10:10:32.765Z,77.90
2022-09-05T10:10:47.498Z,77.60
2022-09-05T10:11:54.302Z,75.40
2022-09-05T10:14:56.639Z,74.90
2022-09-05T10:17:52.581Z,75.40
2022-09-05T10:20:40.888Z,74.80
2022-09-05T10:23:25.956Z,75.20
2022-09-05T10:26:17.221Z,73.80
2022-09-05T10:29:26.720Z,74.50
2022-09-05T10:35:00.794Z,75.00
2022-09-05T10:35:22.244Z,73.60
2022-09-05T10:38:11.303Z,73.20
2022-09-05T10:41:20.095Z,72.30
2022-09-05T10:43:32.400Z,72.10
2022-09-05T10:46:52.229Z,72.30
2022-09-05T10:50:03.884Z,73.60
2022-09-05T10:52:59.931Z,72.70
2022-09-05T10:56:10.858Z,72.40
2022-09-05T11:02:19.337Z,72.40
2022-09-05T11:02:27.669Z,71.60
2022-09-05T11:05:47.435Z,70.30
2022-09-05T11:08:42.447Z,69.00
2022-09-05T11:11:28.393Z,69.40
2022-09-05T11:14:07.290Z,68.20
2022-09-05T11:16:57.418Z,68.10
2022-09-05T11:19:44.617Z,66.80
2022-09-05T11:22:22.387Z,66.80
2022-09-05T11:25:01.061Z,66.60
2022-09-05T11:27:38.235Z,66.90
2022-09-05T11:30:29.244Z,67.90
2022-09-05T11:39:47.495Z,67.40
2022-09-05T11:39:57.096Z,67.50
2022-09-05T11:40:10.552Z,66.40
2022-09-05T11:42:49.098Z,65.40
2022-09-05T11:45:58.324Z,65.90
2022-09-05T11:48:53.327Z,67.10
2022-09-05T11:51:35.700Z,67.20
2022-09-05T11:54:17.386Z,66.40
2022-09-05T11:56:50.215Z,66.40
2022-09-05T11:59:33.525Z,68.10
2022-09-05T12:02:26.354Z,67.10
2022-09-05T12:05:48.388Z,69.70
2022-09-05T12:08:28.918Z,68.40
2022-09-05T12:11:33.427Z,68.00
2022-09-05T12:14:20.807Z,67.70
2022-09-05T12:16:50.712Z,68.40
2022-09-05T12:19:35.524Z,67.20
2022-09-05T12:22:27.810Z,67.30
2022-09-05T12:25:45.864Z,67.00
2022-09-05T12:28:28.575Z,68.50
2022-09-05T12:31:07.096Z,67.70
2022-09-05T12:36:06.248Z,68.30
2022-09-05T12:40:54.651Z,68.20
2022-09-05T12:41:14.918Z,68.60
2022-09-05T12:44:20.934Z,68.20
2022-09-05T12:46:23.608Z,68.60
2022-09-05T12:49:06.764Z,68.70
2022-09-05T12:51:45.826Z,68.40
2022-09-05T12:54:33.505Z,69.20
2022-09-05T13:01:12.694Z,68.20
2022-09-05T13:03:03.140Z,68.30
2022-09-05T13:03:28.048Z,69.00
2022-09-05T13:06:05.370Z,67.80
2022-09-05T13:08:52.825Z,68.20
2022-09-05T13:14:48.093Z,68.60
2022-09-05T13:14:56.695Z,67.40
2022-09-05T13:17:14.021Z,68.00
2022-09-05T13:19:51.449Z,67.50
2022-09-05T13:22:22.547Z,67.10
2022-09-05T13:25:08.834Z,68.10
2022-09-05T13:27:42.347Z,68.70
2022-09-05T13:34:12.699Z,67.00
2022-09-05T13:37:58.254Z,67.40
2022-09-05T13:37:59.738Z,66.90
2022-09-05T13:39:16.421Z,67.00
2022-09-05T13:41:48.858Z,66.90
2022-09-05T13:44:25.211Z,68.00
2022-09-05T13:47:29.407Z,67.80
2022-09-05T13:50:06.515Z,67.80
2022-09-05T13:52:44.799Z,68.50
2022-09-05T13:55:17.679Z,68.50
2022-09-05T13:57:56.439Z,69.00
2022-09-05T14:00:43.455Z,68.60
2022-09-05T14:04:01.839Z,68.50
2022-09-05T14:06:51.595Z,69.10
2022-09-05T14:09:48.119Z,69.70
2022-09-05T14:12:42.228Z,70.10
2022-09-05T14:15:38.101Z,70.30
2022-09-05T14:18:21.632Z,70.20
2022-09-05T14:21:27.771Z,70.50
2022-09-05T14:24:04.819Z,71.10
2022-09-05T14:26:35.654Z,70.70
2022-09-05T14:29:05.964Z,70.50
2022-09-05T14:37:26.550Z,70.60
2022-09-05T14:37:53.227Z,71.50
2022-09-05T14:38:32.951Z,71.20
2022-09-05T14:41:38.217Z,71.20
2022-09-05T14:44:37.908Z,71.20
2022-09-05T14:47:37.501Z,71.80
2022-09-05T14:50:30.751Z,71.30
2022-09-05T14:57:23.814Z,71.50
2022-09-05T15:02:41.211Z,72.20
2022-09-05T15:02:52.712Z,72.70
2022-09-05T15:05:11.780Z,72.70
2022-09-05T15:07:46.543Z,73.40
2022-09-05T15:12:14.754Z,73.40
2022-09-05T15:13:11.829Z,73.40
2022-09-05T15:15:43.407Z,74.00
2022-09-05T15:18:24.735Z,74.10
2022-09-05T15:20:54.327Z,74.00
2022-09-05T15:23:26.074Z,74.00
2022-09-05T15:26:31.668Z,73.90
2022-09-05T15:29:14.603Z,73.60
2022-09-05T15:31:42.199Z,74.50
2022-09-05T15:34:26.743Z,74.00
2022-09-05T15:36:55.082Z,74.20
2022-09-05T15:39:36.069Z,74.00
2022-09-05T15:42:16.205Z,73.90
2022-09-05T15:45:08.535Z,74.40
2022-09-05T15:47:35.391Z,74.00
2022-09-05T15:50:07.839Z,73.80
2022-09-05T15:52:55.419Z,74.30
2022-09-05T15:55:26.734Z,73.90
2022-09-05T15:57:57.789Z,74.30
2022-09-05T16:00:33.898Z,74.20
2022-09-05T16:03:40.968Z,74.60
2022-09-05T16:10:30.138Z,75.10
2022-09-05T16:10:45.942Z,75.60
2022-09-05T16:17:12.543Z,75.60
2022-09-05T16:23:25.285Z,76.20
2022-09-05T16:23:25.287Z,75.90
2022-09-05T16:24:06.887Z,76.00
2022-09-05T16:26:40.653Z,76.50
2022-09-05T16:29:23.918Z,76.80
2022-09-05T16:31:59.637Z,76.90
2022-09-05T16:34:34.099Z,76.80
2022-09-05T16:37:26.576Z,77.40
2022-09-05T16:40:04.391Z,77.70
2022-09-05T16:42:55.234Z,77.90
2022-09-05T16:46:06.695Z,78.30
2022-09-05T16:48:55.293Z,78.30
2022-09-05T16:51:38.809Z,78.30
2022-09-05T16:54:33.613Z,78.50
2022-09-05T16:57:05.208Z,78.60
2022-09-05T16:59:34.715Z,78.80
2022-09-05T17:02:09.103Z,78.50
2022-09-05T17:05:03.276Z,78.70
2022-09-05T17:07:51.179Z,78.80
2022-09-05T17:10:26.132Z,78.60
2022-09-05T17:12:56.231Z,78.90
2022-09-05T17:15:32.729Z,79.10
2022-09-05T17:18:19.822Z,79.20
2022-09-05T17:20:54.333Z,79.10
2022-09-05T17:29:23.321Z,79.60
2022-09-05T17:29:34.488Z,79.60
2022-09-05T17:32:49.283Z,79.70
2022-09-05T17:35:31.484Z,80.10
2022-09-05T17:38:32.080Z,80.30
2022-09-05T17:40:59.448Z,80.30
2022-09-05T17:43:38.586Z,80.20
2022-09-05T17:46:23.527Z,80.50
2022-09-05T17:48:58.610Z,80.50
2022-09-05T17:51:50.936Z,80.60
2022-09-05T17:54:27.589Z,80.80
2022-09-05T17:56:54.516Z,80.60
2022-09-05T17:59:23.060Z,80.90
2022-09-05T18:02:02.188Z,81.00
2022-09-05T18:04:46.972Z,81.10
2022-09-05T18:07:23.118Z,81.10
2022-09-05T18:10:11.844Z,81.30
2022-09-05T18:13:12.495Z,81.20
2022-09-05T18:15:47.798Z,81.50
2022-09-05T18:21:24.273Z,81.70
2022-09-05T18:26:56.135Z,81.90
2022-09-05T18:29:58.668Z,82.00
2022-09-05T18:32:38.923Z,82.00
2022-09-05T18:35:36.503Z,82.20
2022-09-05T18:38:05.302Z,82.30
2022-09-05T18:40:52.063Z,82.30
2022-09-05T18:43:57.204Z,82.30
2022-09-05T18:46:34.689Z,82.30
2022-09-05T18:50:25.517Z,82.40
2022-09-05T18:52:07.473Z,82.40
2022-09-05T18:54:35.759Z,82.60
2022-09-05T18:57:19.933Z,82.40
2022-09-05T19:00:10.362Z,82.50
2022-09-05T19:02:58.922Z,82.30
2022-09-05T19:05:38.722Z,82.50
2022-09-05T19:08:28.720Z,82.30
2022-09-05T19:11:01.312Z,82.50
2022-09-05T19:13:48.665Z,82.30
2022-09-05T19:16:43.557Z,82.60
2022-09-05T19:19:16.948Z,82.60
2022-09-05T19:22:37.328Z,82.50
2022-09-05T19:24:47.146Z,82.20
2022-09-05T19:30:08.654Z,82.00
2022-09-05T19:36:48.934Z,81.80
2022-09-05T19:36:51.437Z,82.10
2022-09-05T19:37:10.872Z,81.90
2022-09-05T19:39:19.685Z,81.70
2022-09-05T19:47:26.645Z,81.60
2022-09-05T19:47:36.820Z,81.30
2022-09-05T19:50:29.157Z,81.10
2022-09-05T19:53:12.580Z,81.30
2022-09-05T19:55:40.200Z,81.30
2022-09-05T19:58:20.267Z,81.20
2022-09-05T20:01:00.426Z,81.40
2022-09-05T20:03:28.970Z,81.50
2022-09-05T20:06:24.649Z,81.60
2022-09-05T20:09:09.323Z,81.80
2022-09-05T20:11:45.938Z,81.80
2022-09-05T20:14:36.745Z,82.10
2022-09-05T20:20:11.849Z,82.60
2022-09-05T20:22:48.558Z,82.80
2022-09-05T20:25:39.920Z,83.30
2022-09-05T20:28:13.649Z,83.40
2022-09-05T20:30:44.957Z,83.50
2022-09-05T20:33:38.855Z,83.60
2022-09-05T20:42:51.286Z,83.90
2022-09-05T20:43:27.220Z,84.10
2022-09-05T20:43:30.598Z,84.30
2022-09-05T20:44:48.349Z,84.70
2022-09-05T20:51:27.930Z,85.10
2022-09-05T20:54:17.370Z,85.10
2022-09-05T20:54:28.127Z,85.20
2022-09-05T20:56:07.643Z,85.30
2022-09-05T20:58:39.819Z,85.50
2022-09-05T21:01:24.513Z,85.40
2022-09-05T21:03:59.431Z,85.50
2022-09-05T21:06:36.581Z,85.40
2022-09-05T21:09:14.177Z,85.50
2022-09-05T21:11:47.966Z,85.60
2022-09-05T21:14:24.383Z,85.70
2022-09-05T21:17:04.934Z,85.80
2022-09-05T21:19:53.630Z,85.90
2022-09-05T21:22:21.189Z,86.20
2022-09-05T21:24:48.915Z,86.20
2022-09-05T21:27:24.096Z,86.40
2022-09-05T21:29:58.816Z,86.50
2022-09-05T21:32:38.206Z,86.90
2022-09-05T21:35:34.759Z,86.90
2022-09-05T21:37:58.850Z,87.10
2022-09-05T21:40:25.724Z,87.20
2022-09-05T21:45:33.801Z,87.40
2022-09-05T21:47:39.906Z,87.60
2022-09-05T21:48:27.629Z,87.80
2022-09-05T21:50:57.468Z,88.00
2022-09-05T21:59:13.601Z,88.30
2022-09-05T21:59:32.701Z,88.40
2022-09-05T21:59:36.629Z,88.50
2022-09-05T22:02:07.177Z,88.60
2022-09-05T22:04:37.212Z,88.80
2022-09-05T22:07:14.394Z,88.80
2022-09-05T22:09:41.366Z,88.80
2022-09-05T22:12:28.271Z,89.10
2022-09-05T22:14:55.868Z,89.20
2022-09-05T22:17:25.412Z,89.40
2022-09-05T22:19:53.501Z,89.40
2022-09-05T22:22:20.859Z,89.50
2022-09-05T22:24:56.608Z,89.50
2022-09-05T22:27:25.890Z,89.60
2022-09-05T22:29:52.956Z,89.80
2022-09-05T22:32:28.554Z,89.80
2022-09-05T22:35:27.074Z,89.90
2022-09-05T22:37:59.493Z,90.00
2022-09-05T22:40:28.908Z,90.00
2022-09-05T22:42:57.263Z,89.90
2022-09-05T22:45:24.736Z,90.00
2022-09-05T22:47:51.799Z,89.90
2022-09-05T22:50:18.663Z,90.00
2022-09-05T22:52:45.439Z,90.10
2022-09-05T22:55:12.438Z,90.10
2022-09-05T22:57:40.024Z,90.10
2022-09-05T23:00:08.102Z,90.10
2022-09-05T23:02:37.726Z,90.00
2022-09-05T23:05:05.833Z,90.00
2022-09-05T23:07:32.946Z,90.10
2022-09-05T23:09:59.793Z,90.10
2022-09-05T23:12:26.633Z,90.10
2022-09-05T23:14:53.783Z,90.10
2022-09-05T23:17:20.582Z,90.10
2022-09-05T23:19:47.378Z,90.10
2022-09-05T23:22:14.195Z,90.20
2022-09-05T23:24:41.048Z,90.10
2022-09-05T23:27:07.884Z,90.10
2022-09-05T23:29:35.078Z,90.00
2022-09-05T23:32:02.045Z,90.00
2022-09-05T23:34:28.891Z,90.00
2022-09-05T23:36:55.678Z,90.00
2022-09-05T23:39:22.488Z,90.00
2022-09-05T23:41:49.335Z,90.00
2022-09-05T23:44:16.117Z,90.00
2022-09-05T23:46:42.972Z,90.00
2022-09-05T23:49:09.962Z,89.90
2022-09-05T23:51:36.724Z,90.10
2022-09-05T23:54:03.572Z,90.10
2022-09-05T23:56:30.819Z,90.10
2022-09-05T23:58:57.609Z,90.30
